Wetterdaten: Woche 23.01.17 - 29.01.17 (KW4)
Datum Zeit Temp. A. Feuchte A. Luftdruck Regen Wind Richtung Taupunkt Windchill Windben
23.01.2017 00:00 -13,9 C 89 % 1027,2 hPa 0,0 l/m 0,0 km/h (0 Bft) W-NW -15,3 C -13,9 C 0,4 km/h (0 Bft)
23.01.2017 01:00 -14,7 C 89 % 1026,9 hPa 0,0 l/m 0,0 km/h (0 Bft) W-NW -16,1 C -14,7 C 0,0 km/h (0 Bft)
23.01.2017 02:00 -15,2 C 89 % 1026,7 hPa 0,0 l/m 0,0 km/h (0 Bft) W-NW -16,6 C -15,2 C 0,1 km/h (0 Bft)
23.01.2017 03:00 -15,7 C 89 % 1026,8 hPa 0,0 l/m 0,0 km/h (0 Bft) W-NW -17,1 C -15,7 C 0,0 km/h (0 Bft)
23.01.2017 04:00 -16,2 C 89 % 1026,8 hPa 0,0 l/m 0,0 km/h (0 Bft) W-NW -17,7 C -16,2 C 0,0 km/h (0 Bft)
23.01.2017 05:00 -16,6 C 88 % 1026,8 hPa 0,0 l/m 0,0 km/h (0 Bft) W-NW -18,1 C -16,6 C 0,4 km/h (0 Bft)
23.01.2017 06:00 -16,9 C 88 % 1026,9 hPa 0,0 l/m 0,0 km/h (0 Bft) W-NW -18,4 C -16,9 C 0,7 km/h (0 Bft)
23.01.2017 07:00 -17,3 C 88 % 1027,1 hPa 0,0 l/m 0,1 km/h (0 Bft) W-NW -18,8 C -17,3 C 0,5 km/h (0 Bft)
23.01.2017 08:00 -17,3 C 88 % 1027,4 hPa 0,0 l/m 0,0 km/h (0 Bft) W-NW -18,8 C -17,3 C 0,0 km/h (0 Bft)
23.01.2017 09:00 -15,0 C 90 % 1027,5 hPa 0,0 l/m 0,2 km/h (0 Bft) W-NW -16,2 C -15,0 C 1,2 km/h (1 Bft)
23.01.2017 10:00 -10,9 C 88 % 1027,6 hPa 0,0 l/m 0,5 km/h (0 Bft) W-NW -12,5 C -10,9 C 1,7 km/h (1 Bft)
23.01.2017 11:00 -6,7 C 82 % 1027,4 hPa 0,0 l/m 1,2 km/h (1 Bft) W-NW -9,3 C -6,7 C 2,4 km/h (1 Bft)
23.01.2017 12:00 -4,0 C 78 % 1026,9 hPa 0,0 l/m 1,4 km/h (1 Bft) W-NW -7,3 C -4,0 C 3,6 km/h (1 Bft)
23.01.2017 13:00 -2,2 C 74 % 1026,3 hPa 0,0 l/m 3,3 km/h (1 Bft) W-NW -6,1 C -2,2 C 6,7 km/h (2 Bft)
23.01.2017 14:00 -1,3 C 70 % 1026,1 hPa 0,0 l/m 2,6 km/h (1 Bft) W-NW -6,0 C -1,3 C 6,1 km/h (2 Bft)
23.01.2017 15:00 -1,7 C 70 % 1026,2 hPa 0,0 l/m 3,2 km/h (1 Bft) W-NW -6,3 C -1,7 C 7,1 km/h (2 Bft)
23.01.2017 16:00 -2,7 C 73 % 1026,6 hPa 0,0 l/m 1,7 km/h (1 Bft) W-NW -6,9 C -2,7 C 4,9 km/h (1 Bft)
23.01.2017 17:00 -6,3 C 81 % 1027,1 hPa 0,0 l/m 0,0 km/h (0 Bft) W -9,0 C -6,3 C 0,1 km/h (0 Bft)
23.01.2017 18:00 -8,7 C 86 % 1027,2 hPa 0,0 l/m 0,0 km/h (0 Bft) W -10,6 C -8,7 C 0,1 km/h (0 Bft)
23.01.2017 19:00 -11,2 C 89 % 1027,4 hPa 0,0 l/m 0,0 km/h (0 Bft) W -12,6 C -11,2 C 0,5 km/h (0 Bft)
23.01.2017 20:00 -12,7 C 89 % 1027,5 hPa 0,0 l/m 0,0 km/h (0 Bft) W -14,0 C -12,7 C 0,0 km/h (0 Bft)
23.01.2017 21:00 -13,5 C 90 % 1027,5 hPa 0,0 l/m 0,0 km/h (0 Bft) W -14,7 C -13,5 C 0,0 km/h (0 Bft)
23.01.2017 22:00 -13,9 C 90 % 1027,6 hPa 0,0 l/m 0,0 km/h (0 Bft) W -15,2 C -13,9 C 0,8 km/h (0 Bft)
23.01.2017 23:00 -14,6 C 89 % 1027,8 hPa 0,0 l/m 0,0 km/h (0 Bft) W -16,0 C -14,6 C 0,0 km/h (0 Bft)
24.01.2017 00:00 -15,1 C 89 % 1027,8 hPa 0,0 l/m 0,0 km/h (0 Bft) W -16,5 C -15,1 C 0,6 km/h (0 Bft)
24.01.2017 01:00 -15,7 C 89 % 1027,9 hPa 0,0 l/m 0,0 km/h (0 Bft) W -17,2 C -15,7 C 0,5 km/h (0 Bft)
24.01.2017 02:00 -16,2 C 88 % 1027,8 hPa 0,0 l/m 0,0 km/h (0 Bft) W -17,6 C -16,2 C 0,3 km/h (0 Bft)
24.01.2017 03:00 -16,5 C 88 % 1027,9 hPa 0,0 l/m 0,0 km/h (0 Bft) W -18,0 C -16,5 C 0,1 km/h (0 Bft)
24.01.2017 04:00 -16,2 C 89 % 1028,0 hPa 0,0 l/m 0,1 km/h (0 Bft) W -17,6 C -16,2 C 0,7 km/h (0 Bft)
24.01.2017 05:00 -14,9 C 90 % 1028,1 hPa 0,0 l/m 0,0 km/h (0 Bft) W -16,2 C -14,9 C 0,9 km/h (0 Bft)
24.01.2017 06:00 -14,0 C 90 % 1028,1 hPa 0,0 l/m 0,2 km/h (0 Bft) W -15,3 C -14,0 C 1,1 km/h (1 Bft)
24.01.2017 07:00 -13,1 C 90 % 1028,4 hPa 0,0 l/m 0,0 km/h (0 Bft) W -14,3 C -13,1 C 0,7 km/h (0 Bft)
24.01.2017 08:00 -12,2 C 91 % 1029,0 hPa 0,0 l/m 0,1 km/h (0 Bft) W -13,3 C -12,2 C 0,9 km/h (0 Bft)
24.01.2017 09:00 -11,1 C 92 % 1029,0 hPa 0,0 l/m 0,1 km/h (0 Bft) W -12,1 C -11,1 C 0,9 km/h (0 Bft)
24.01.2017 10:00 -10,0 C 92 % 1029,4 hPa 0,0 l/m 0,1 km/h (0 Bft) W -11,0 C -10,0 C 0,9 km/h (0 Bft)
24.01.2017 11:00 -8,5 C 92 % 1029,4 hPa 0,0 l/m 0,2 km/h (0 Bft) W -9,5 C -8,5 C 1,0 km/h (0 Bft)
24.01.2017 12:00 -7,6 C 92 % 1029,2 hPa 0,0 l/m 0,4 km/h (0 Bft) W -8,7 C -7,6 C 1,7 km/h (1 Bft)
24.01.2017 13:00 -7,1 C 91 % 1028,9 hPa 0,0 l/m 2,0 km/h (1 Bft) SW -8,3 C -7,1 C 6,1 km/h (2 Bft)
24.01.2017 14:00 -6,9 C 90 % 1028,9 hPa 0,0 l/m 2,1 km/h (1 Bft) W-NW -8,3 C -6,9 C 5,7 km/h (2 Bft)
24.01.2017 15:00 -7,2 C 90 % 1029,4 hPa 0,0 l/m 2,4 km/h (1 Bft) W-NW -8,5 C -7,2 C 7,5 km/h (2 Bft)
24.01.2017 16:00 -7,5 C 91 % 1030,1 hPa 0,0 l/m 2,0 km/h (1 Bft) W -8,7 C -7,5 C 6,7 km/h (2 Bft)
24.01.2017 17:00 -7,7 C 91 % 1030,6 hPa 0,0 l/m 2,5 km/h (1 Bft) W -8,9 C -7,7 C 6,7 km/h (2 Bft)
24.01.2017 18:00 -7,7 C 91 % 1030,9 hPa 0,0 l/m 2,2 km/h (1 Bft) SW -9,0 C -7,7 C 5,6 km/h (2 Bft)
24.01.2017 19:00 -7,7 C 91 % 1031,0 hPa 0,0 l/m 2,3 km/h (1 Bft) W -8,9 C -7,7 C 7,5 km/h (2 Bft)
24.01.2017 20:00 -7,6 C 91 % 1030,8 hPa 0,0 l/m 1,9 km/h (1 Bft) S-SW -8,8 C -7,6 C 7,0 km/h (2 Bft)
24.01.2017 21:00 -7,4 C 90 % 1030,8 hPa 0,0 l/m 2,6 km/h (1 Bft) SW -8,7 C -7,4 C 7,6 km/h (2 Bft)
24.01.2017 22:00 -7,3 C 90 % 1030,7 hPa 0,0 l/m 2,2 km/h (1 Bft) SW -8,7 C -7,3 C 6,7 km/h (2 Bft)
24.01.2017 23:00 -7,3 C 91 % 1030,5 hPa 0,0 l/m 2,8 km/h (1 Bft) W-SW -8,6 C -7,3 C 8,4 km/h (2 Bft)
25.01.2017 00:00 -7,3 C 91 % 1030,2 hPa 0,0 l/m 4,5 km/h (1 Bft) SW -8,5 C -7,4 C 11,4 km/h (2 Bft)
25.01.2017 01:00 -7,5 C 92 % 1029,9 hPa 0,0 l/m 4,3 km/h (1 Bft) S-SW -8,5 C -7,5 C 12,1 km/h (2 Bft)
25.01.2017 02:00 -7,9 C 94 % 1029,7 hPa 0,0 l/m 4,5 km/h (1 Bft) W-NW -8,7 C -8,0 C 13,0 km/h (3 Bft)
25.01.2017 03:00 -8,1 C 94 % 1029,6 hPa 0,0 l/m 4,0 km/h (1 Bft) W -8,9 C -8,1 C 10,9 km/h (2 Bft)
25.01.2017 04:00 -8,5 C 94 % 1029,4 hPa 0,0 l/m 4,0 km/h (1 Bft) W -9,3 C -8,5 C 10,6 km/h (2 Bft)
25.01.2017 05:00 -8,9 C 93 % 1029,6 hPa 0,0 l/m 3,6 km/h (1 Bft) S-SW -9,8 C -8,9 C 8,7 km/h (2 Bft)
25.01.2017 06:00 -9,2 C 93 % 1029,5 hPa 0,0 l/m 3,6 km/h (1 Bft) S-SW -10,1 C -9,1 C 9,1 km/h (2 Bft)
25.01.2017 07:00 -9,5 C 93 % 1029,6 hPa 0,0 l/m 2,9 km/h (1 Bft) W-NW -10,4 C -9,5 C 8,2 km/h (2 Bft)
25.01.2017 08:00 -9,7 C 92 % 1029,6 hPa 0,0 l/m 2,2 km/h (1 Bft) NW -10,8 C -9,7 C 6,5 km/h (2 Bft)
25.01.2017 09:00 -9,8 C 92 % 1029,9 hPa 0,0 l/m 3,0 km/h (1 Bft) NW -10,9 C -9,8 C 9,0 km/h (2 Bft)
25.01.2017 10:00 -9,8 C 90 % 1030,4 hPa 0,0 l/m 3,0 km/h (1 Bft) S-SW -11,0 C -9,8 C 8,7 km/h (2 Bft)
25.01.2017 11:00 -9,5 C 90 % 1030,4 hPa 0,0 l/m 2,9 km/h (1 Bft) SW -10,8 C -9,5 C 8,6 km/h (2 Bft)
25.01.2017 12:00 -9,2 C 89 % 1030,2 hPa 0,0 l/m 3,5 km/h (1 Bft) SW -10,7 C -9,2 C 8,4 km/h (2 Bft)
25.01.2017 13:00 -8,7 C 86 % 1029,5 hPa 0,0 l/m 3,5 km/h (1 Bft) S-SW -10,6 C -8,7 C 9,9 km/h (2 Bft)
25.01.2017 14:00 -8,4 C 85 % 1029,2 hPa 0,0 l/m 4,0 km/h (1 Bft) W-NW -10,5 C -8,4 C 11,2 km/h (2 Bft)
25.01.2017 15:00 -7,6 C 83 % 1029,3 hPa 0,0 l/m 3,4 km/h (1 Bft) NW -10,0 C -7,6 C 8,7 km/h (2 Bft)
25.01.2017 16:00 -8,0 C 85 % 1029,4 hPa 0,0 l/m 4,4 km/h (1 Bft) SW -10,1 C -8,0 C 12,6 km/h (3 Bft)
25.01.2017 17:00 -8,0 C 87 % 1029,8 hPa 0,0 l/m 2,5 km/h (1 Bft) SW -9,7 C -8,0 C 6,9 km/h (2 Bft)
25.01.2017 18:00 -7,8 C 88 % 1029,9 hPa 0,0 l/m 3,1 km/h (1 Bft) W-NW -9,5 C -7,8 C 7,7 km/h (2 Bft)
25.01.2017 19:00 -7,7 C 88 % 1029,7 hPa 0,0 l/m 2,7 km/h (1 Bft) NW -9,4 C -7,7 C 7,4 km/h (2 Bft)
25.01.2017 20:00 -7,6 C 88 % 1029,8 hPa 0,0 l/m 1,9 km/h (1 Bft) W-NW -9,2 C -7,6 C 5,3 km/h (1 Bft)
25.01.2017 21:00 -7,4 C 89 % 1029,8 hPa 0,0 l/m 2,1 km/h (1 Bft) W-NW -8,9 C -7,4 C 6,4 km/h (2 Bft)
25.01.2017 22:00 -7,2 C 89 % 1029,7 hPa 0,0 l/m 1,4 km/h (1 Bft) W-NW -8,7 C -7,2 C 4,1 km/h (1 Bft)
25.01.2017 23:00 -7,1 C 89 % 1029,5 hPa 0,0 l/m 1,9 km/h (1 Bft) W -8,6 C -7,1 C 5,9 km/h (2 Bft)
26.01.2017 00:00 -7,2 C 89 % 1029,5 hPa 0,0 l/m 2,1 km/h (1 Bft) W -8,7 C -7,2 C 5,2 km/h (1 Bft)
26.01.2017 01:00 -7,2 C 90 % 1029,2 hPa 0,0 l/m 1,7 km/h (1 Bft) W-NW -8,6 C -7,2 C 5,5 km/h (2 Bft)
26.01.2017 02:00 -7,2 C 90 % 1029,1 hPa 0,0 l/m 2,1 km/h (1 Bft) W-NW -8,5 C -7,2 C 6,7 km/h (2 Bft)
26.01.2017 03:00 -7,2 C 90 % 1029,1 hPa 0,0 l/m 2,5 km/h (1 Bft) W-NW -8,6 C -7,2 C 6,4 km/h (2 Bft)
26.01.2017 04:00 -7,2 C 91 % 1028,7 hPa 0,0 l/m 1,8 km/h (1 Bft) W-NW -8,4 C -7,2 C 5,5 km/h (2 Bft)
26.01.2017 05:00 -7,1 C 91 % 1028,4 hPa 0,0 l/m 1,9 km/h (1 Bft) W -8,3 C -7,1 C 5,3 km/h (1 Bft)
26.01.2017 06:00 -7,0 C 91 % 1028,1 hPa 0,0 l/m 1,6 km/h (1 Bft) NW -8,3 C -7,0 C 4,4 km/h (1 Bft)
26.01.2017 07:00 -7,1 C 91 % 1027,5 hPa 0,0 l/m 1,9 km/h (1 Bft) NO -8,3 C -7,1 C 5,9 km/h (2 Bft)
26.01.2017 08:00 -6,9 C 91 % 1027,3 hPa 0,0 l/m 1,7 km/h (1 Bft) W -8,1 C -6,9 C 5,6 km/h (2 Bft)
26.01.2017 09:00 -6,7 C 90 % 1027,3 hPa 0,0 l/m 2,4 km/h (1 Bft) W-NW -8,1 C -6,7 C 6,4 km/h (2 Bft)
26.01.2017 10:00 -6,2 C 89 % 1027,2 hPa 0,0 l/m 2,7 km/h (1 Bft) NO -7,7 C -6,2 C 6,8 km/h (2 Bft)
26.01.2017 11:00 -5,4 C 86 % 1026,6 hPa 0,0 l/m 2,9 km/h (1 Bft) W -7,3 C -5,4 C 6,9 km/h (2 Bft)
26.01.2017 12:00 -4,8 C 85 % 1026,1 hPa 0,0 l/m 2,8 km/h (1 Bft) W-NW -6,9 C -4,8 C 6,4 km/h (2 Bft)
26.01.2017 13:00 -3,9 C 83 % 1025,5 hPa 0,0 l/m 3,0 km/h (1 Bft) W -6,4 C -3,9 C 7,4 km/h (2 Bft)
26.01.2017 14:00 -3,5 C 82 % 1025,2 hPa 0,0 l/m 2,4 km/h (1 Bft) W-NW -6,1 C -3,5 C 6,8 km/h (2 Bft)
26.01.2017 15:00 -2,4 C 78 % 1024,8 hPa 0,0 l/m 1,9 km/h (1 Bft) W-SW -5,8 C -2,4 C 5,5 km/h (2 Bft)
26.01.2017 16:00 -3,2 C 80 % 1024,6 hPa 0,0 l/m 1,9 km/h (1 Bft) W -6,1 C -3,2 C 5,1 km/h (1 Bft)
26.01.2017 17:00 -5,8 C 85 % 1024,7 hPa 0,0 l/m 0,1 km/h (0 Bft) W -7,9 C -5,8 C 1,1 km/h (1 Bft)
26.01.2017 18:00 -7,3 C 88 % 1024,7 hPa 0,0 l/m 0,0 km/h (0 Bft) W -8,9 C -7,3 C 0,5 km/h (0 Bft)
26.01.2017 19:00 -8,8 C 91 % 1024,5 hPa 0,0 l/m 0,1 km/h (0 Bft) W -10,0 C -8,8 C 1,1 km/h (0 Bft)
26.01.2017 20:00 -9,8 C 92 % 1024,4 hPa 0,0 l/m 0,3 km/h (0 Bft) W -10,8 C -9,8 C 1,7 km/h (1 Bft)
26.01.2017 21:00 -9,4 C 93 % 1024,1 hPa 0,0 l/m 0,7 km/h (0 Bft) O -10,3 C -9,4 C 2,7 km/h (1 Bft)
26.01.2017 22:00 -9,3 C 91 % 1023,7 hPa 0,0 l/m 0,2 km/h (0 Bft) NW -10,4 C -9,3 C 1,6 km/h (1 Bft)
26.01.2017 23:00 -10,6 C 91 % 1023,7 hPa 0,0 l/m 0,1 km/h (0 Bft) NW -11,8 C -10,6 C 1,1 km/h (0 Bft)
27.01.2017 00:00 -11,3 C 91 % 1023,7 hPa 0,0 l/m 0,1 km/h (0 Bft) NW -12,4 C -11,3 C 1,0 km/h (0 Bft)
27.01.2017 01:00 -12,1 C 91 % 1023,5 hPa 0,0 l/m 0,1 km/h (0 Bft) NW -13,2 C -12,1 C 1,2 km/h (1 Bft)
27.01.2017 02:00 -12,5 C 91 % 1023,5 hPa 0,0 l/m 0,1 km/h (0 Bft) NW -13,8 C -12,5 C 0,7 km/h (0 Bft)
27.01.2017 03:00 -12,8 C 91 % 1023,5 hPa 0,0 l/m 0,1 km/h (0 Bft) NW -14,0 C -12,8 C 0,9 km/h (0 Bft)
27.01.2017 04:00 -13,1 C 90 % 1023,4 hPa 0,0 l/m 0,0 km/h (0 Bft) NW -14,3 C -13,1 C 0,0 km/h (0 Bft)
27.01.2017 05:00 -13,3 C 91 % 1023,3 hPa 0,0 l/m 0,0 km/h (0 Bft) NW -14,5 C -13,3 C 0,5 km/h (0 Bft)
27.01.2017 06:00 -13,2 C 91 % 1023,4 hPa 0,0 l/m 0,0 km/h (0 Bft) NW -14,4 C -13,2 C 0,3 km/h (0 Bft)
27.01.2017 07:00 -13,2 C 91 % 1023,6 hPa 0,0 l/m 0,0 km/h (0 Bft) NW -14,4 C -13,2 C 0,4 km/h (0 Bft)
27.01.2017 08:00 -12,6 C 92 % 1024,1 hPa 0,0 l/m 0,0 km/h (0 Bft) NW -13,6 C -12,6 C 0,0 km/h (0 Bft)
27.01.2017 09:00 -9,5 C 92 % 1024,6 hPa 0,0 l/m 0,1 km/h (0 Bft) NW -10,5 C -9,5 C 0,8 km/h (0 Bft)
27.01.2017 10:00 -4,9 C 84 % 1024,6 hPa 0,0 l/m 0,7 km/h (0 Bft) NW -7,1 C -4,9 C 1,9 km/h (1 Bft)
27.01.2017 11:00 -0,6 C 76 % 1024,2 hPa 0,0 l/m 1,0 km/h (0 Bft) NW -4,4 C -0,6 C 2,0 km/h (1 Bft)
27.01.2017 12:00 1,9 C 71 % 1023,7 hPa 0,8 l/m 1,1 km/h (1 Bft) NW -2,8 C 1,9 C 2,4 km/h (1 Bft)
27.01.2017 13:00 5,4 C 62 % 1022,8 hPa 0,8 l/m 0,9 km/h (0 Bft) NW -1,3 C 5,4 C 2,5 km/h (1 Bft)
27.01.2017 14:00 6,1 C 65 % 1022,3 hPa 0,5 l/m 0,3 km/h (0 Bft) NW 0,0 C 6,1 C 1,6 km/h (1 Bft)
27.01.2017 15:00 4,6 C 72 % 1022,1 hPa 0,3 l/m 0,2 km/h (0 Bft) NW -0,1 C 4,6 C 1,2 km/h (1 Bft)
27.01.2017 16:00 1,4 C 82 % 1022,0 hPa 0,0 l/m 0,0 km/h (0 Bft) NW -1,3 C 1,4 C 0,4 km/h (0 Bft)
27.01.2017 17:00 -1,9 C 90 % 1022,1 hPa 0,0 l/m 0,0 km/h (0 Bft) NW -3,3 C -1,9 C 0,2 km/h (0 Bft)
27.01.2017 18:00 -3,0 C 92 % 1022,1 hPa 0,0 l/m 0,0 km/h (0 Bft) NW -4,1 C -3,0 C 0,0 km/h (0 Bft)
27.01.2017 19:00 -4,0 C 94 % 1022,1 hPa 0,0 l/m 0,1 km/h (0 Bft) NW -4,8 C -4,0 C 0,5 km/h (0 Bft)
27.01.2017 20:00 -4,5 C 94 % 1021,9 hPa 0,0 l/m 0,1 km/h (0 Bft) NW -5,3 C -4,5 C 0,3 km/h (0 Bft)
27.01.2017 21:00 -5,3 C 94 % 1021,6 hPa 0,0 l/m 0,0 km/h (0 Bft) NW -6,1 C -5,3 C 0,1 km/h (0 Bft)
27.01.2017 22:00 -5,7 C 94 % 1021,5 hPa 0,0 l/m 0,1 km/h (0 Bft) NW -6,5 C -5,7 C 0,9 km/h (0 Bft)
27.01.2017 23:00 -6,4 C 94 % 1021,5 hPa 0,0 l/m 0,1 km/h (0 Bft) NW -7,2 C -6,4 C 0,7 km/h (0 Bft)
28.01.2017 00:00 -6,7 C 94 % 1021,4 hPa 0,0 l/m 0,6 km/h (0 Bft) S -7,4 C -6,7 C 1,4 km/h (1 Bft)
28.01.2017 01:00 -7,3 C 93 % 1020,9 hPa 0,0 l/m 0,0 km/h (0 Bft) S -8,3 C -7,3 C 0,7 km/h (0 Bft)
28.01.2017 02:00 -8,1 C 94 % 1020,9 hPa 0,0 l/m 0,1 km/h (0 Bft) S -9,0 C -8,1 C 0,8 km/h (0 Bft)
28.01.2017 03:00 -8,4 C 93 % 1020,7 hPa 0,0 l/m 0,1 km/h (0 Bft) S -9,3 C -8,4 C 0,8 km/h (0 Bft)
28.01.2017 04:00 -8,3 C 94 % 1020,6 hPa 0,0 l/m 0,2 km/h (0 Bft) S -9,1 C -8,3 C 1,1 km/h (0 Bft)
28.01.2017 05:00 -8,3 C 93 % 1020,7 hPa 0,0 l/m 0,1 km/h (0 Bft) S -9,2 C -8,3 C 0,6 km/h (0 Bft)
28.01.2017 06:00 -8,5 C 94 % 1020,9 hPa 0,0 l/m 0,0 km/h (0 Bft) S -9,3 C -8,5 C 0,3 km/h (0 Bft)
28.01.2017 07:00 -7,9 C 95 % 1021,2 hPa 0,0 l/m 0,0 km/h (0 Bft) S -8,6 C -7,9 C 0,3 km/h (0 Bft)
28.01.2017 08:00 -6,1 C 96 % 1021,4 hPa 0,0 l/m 0,1 km/h (0 Bft) S -6,7 C -6,1 C 0,9 km/h (0 Bft)
28.01.2017 09:00 -4,2 C 95 % 1021,6 hPa 0,0 l/m 0,0 km/h (0 Bft) W-NW -4,9 C -4,2 C 0,4 km/h (0 Bft)
28.01.2017 10:00 -1,4 C 92 % 1021,7 hPa 0,0 l/m 0,0 km/h (0 Bft) N -2,5 C -1,4 C 0,1 km/h (0 Bft)
28.01.2017 11:00 0,9 C 82 % 1021,6 hPa 0,0 l/m 0,1 km/h (0 Bft) N -1,9 C 0,9 C 0,7 km/h (0 Bft)
28.01.2017 12:00 3,5 C 72 % 1021,4 hPa 0,0 l/m 0,4 km/h (0 Bft) W-NW -1,0 C 3,5 C 1,6 km/h (1 Bft)
28.01.2017 13:00 6,8 C 63 % 1020,8 hPa 0,3 l/m 0,5 km/h (0 Bft) W-NW 0,4 C 6,8 C 1,7 km/h (1 Bft)
28.01.2017 14:00 8,6 C 61 % 1020,5 hPa 0,0 l/m 0,5 km/h (0 Bft) W-NW 1,5 C 8,6 C 1,6 km/h (1 Bft)
28.01.2017 15:00 8,6 C 63 % 1020,6 hPa 0,0 l/m 0,1 km/h (0 Bft) W-NW 2,0 C 8,6 C 1,1 km/h (0 Bft)
28.01.2017 16:00 5,9 C 71 % 1021,0 hPa 0,0 l/m 0,1 km/h (0 Bft) W-NW 0,9 C 5,9 C 1,2 km/h (1 Bft)
28.01.2017 17:00 0,2 C 85 % 1021,4 hPa 0,0 l/m 0,0 km/h (0 Bft) W-NW -2,0 C 0,2 C 0,3 km/h (0 Bft)
28.01.2017 18:00 -1,7 C 90 % 1021,8 hPa 0,0 l/m 0,0 km/h (0 Bft) W-NW -3,1 C -1,7 C 0,0 km/h (0 Bft)
28.01.2017 19:00 -2,7 C 93 % 1022,1 hPa 0,0 l/m 0,0 km/h (0 Bft) W-NW -3,6 C -2,7 C 0,3 km/h (0 Bft)
28.01.2017 20:00 -3,4 C 94 % 1022,5 hPa 0,0 l/m 0,1 km/h (0 Bft) W-NW -4,3 C -3,4 C 0,8 km/h (0 Bft)
28.01.2017 21:00 -4,3 C 94 % 1023,0 hPa 0,0 l/m 0,0 km/h (0 Bft) W-NW -5,2 C -4,3 C 0,0 km/h (0 Bft)
28.01.2017 22:00 -5,0 C 94 % 1023,3 hPa 0,0 l/m 0,0 km/h (0 Bft) W-NW -5,8 C -5,0 C 0,1 km/h (0 Bft)
28.01.2017 23:00 -5,8 C 94 % 1023,5 hPa 0,0 l/m 0,0 km/h (0 Bft) W-NW -6,6 C -5,8 C 0,1 km/h (0 Bft)
29.01.2017 00:00 -6,1 C 94 % 1023,6 hPa 0,0 l/m 0,2 km/h (0 Bft) W-NW -6,9 C -6,1 C 0,9 km/h (0 Bft)
29.01.2017 01:00 -6,8 C 93 % 1023,6 hPa 0,0 l/m 0,2 km/h (0 Bft) W-NW -7,6 C -6,8 C 0,9 km/h (0 Bft)
29.01.2017 02:00 -7,0 C 94 % 1023,6 hPa 0,0 l/m 0,2 km/h (0 Bft) W-NW -7,9 C -7,0 C 0,8 km/h (0 Bft)
29.01.2017 03:00 -7,6 C 94 % 1023,8 hPa 0,0 l/m 0,1 km/h (0 Bft) W-NW -8,5 C -7,6 C 0,4 km/h (0 Bft)
29.01.2017 04:00 -7,5 C 94 % 1024,0 hPa 0,0 l/m 0,1 km/h (0 Bft) W-NW -8,4 C -7,5 C 0,7 km/h (0 Bft)
29.01.2017 05:00 -7,6 C 94 % 1024,1 hPa 0,0 l/m 0,1 km/h (0 Bft) W-NW -8,4 C -7,6 C 0,6 km/h (0 Bft)
29.01.2017 06:00 -7,0 C 94 % 1024,4 hPa 0,0 l/m 0,2 km/h (0 Bft) W-NW -7,8 C -7,0 C 1,1 km/h (1 Bft)
29.01.2017 07:00 -6,6 C 94 % 1024,9 hPa 0,0 l/m 0,4 km/h (0 Bft) W-NW -7,4 C -6,6 C 1,5 km/h (1 Bft)
29.01.2017 08:00 -5,8 C 94 % 1025,1 hPa 0,0 l/m 0,7 km/h (0 Bft) W-NW -6,6 C -5,8 C 1,8 km/h (1 Bft)
29.01.2017 09:00 -3,6 C 94 % 1025,1 hPa 0,0 l/m 0,3 km/h (0 Bft) W -4,4 C -3,6 C 0,9 km/h (0 Bft)
29.01.2017 10:00 -0,2 C 87 % 1025,0 hPa 0,0 l/m 0,5 km/h (0 Bft) W -2,1 C -0,2 C 1,7 km/h (1 Bft)
29.01.2017 11:00 2,0 C 85 % 1024,9 hPa 0,0 l/m 0,9 km/h (0 Bft) W -0,2 C 2,0 C 2,1 km/h (1 Bft)
29.01.2017 12:00 4,2 C 84 % 1024,4 hPa 0,0 l/m 2,6 km/h (1 Bft) O-NO 1,8 C 4,2 C 5,1 km/h (1 Bft)
29.01.2017 13:00 5,7 C 78 % 1023,6 hPa 0,0 l/m 2,4 km/h (1 Bft) O-NO 2,1 C 5,7 C 6,3 km/h (2 Bft)
29.01.2017 14:00 5,9 C 77 % 1023,3 hPa 0,0 l/m 1,7 km/h (1 Bft) O-NO 2,2 C 5,9 C 5,5 km/h (2 Bft)
29.01.2017 15:00 6,8 C 74 % 1023,2 hPa 0,0 l/m 0,6 km/h (0 Bft) N-NO 2,5 C 6,8 C 2,4 km/h (1 Bft)
29.01.2017 16:00 5,0 C 79 % 1023,5 hPa 0,0 l/m 0,1 km/h (0 Bft) N-NO 1,6 C 5,0 C 0,9 km/h (0 Bft)
29.01.2017 17:00 2,1 C 88 % 1023,9 hPa 0,0 l/m 0,0 km/h (0 Bft) N-NO 0,3 C 2,1 C 0,1 km/h (0 Bft)
29.01.2017 18:00 0,7 C 91 % 1024,1 hPa 0,0 l/m 0,0 km/h (0 Bft) N-NO -0,6 C 0,7 C 0,6 km/h (0 Bft)
29.01.2017 19:00 -0,4 C 94 % 1023,9 hPa 0,0 l/m 0,0 km/h (0 Bft) N-NO -1,2 C -0,4 C 0,3 km/h (0 Bft)
29.01.2017 20:00 -1,2 C 95 % 1023,5 hPa 0,0 l/m 0,1 km/h (0 Bft) N-NO -1,9 C -1,2 C 0,8 km/h (0 Bft)
29.01.2017 21:00 -2,0 C 95 % 1023,5 hPa 0,0 l/m 0,0 km/h (0 Bft) N-NO -2,7 C -2,0 C 0,8 km/h (0 Bft)
29.01.2017 22:00 -2,3 C 95 % 1023,4 hPa 0,0 l/m 0,1 km/h (0 Bft) N-NO -2,9 C -2,3 C 1,2 km/h (1 Bft)
29.01.2017 23:00 -2,7 C 95 % 1023,0 hPa 0,0 l/m 0,2 km/h (0 Bft) O-NO -3,4 C -2,7 C 1,6 km/h (1 Bft)
Min-Datum _ 23.01.17 28.01.17 28.01.17 - 29.01.17 - 23.01.17 23.01.17 29.01.17
_ Min-Zeit 08:05 14:30 14:30 - 23:10 - 08:05 08:05 23:15
Minimum _ -17,5 C 59 % 1020,4 hPa - 0,0 km/h (0 Bft) - -19,1 C -17,5 C 0,0 km/h (0 Bft)
Max-Datum _ 28.01.17 29.01.17 24.01.17 27.01.17 25.01.17 - 29.01.17 28.01.17 25.01.17
_ Max-Zeit 15:05 23:00 19:30 12:20 00:11 - 15:20 15:05 00:25
Maximum _ 9,3 C 96 % 1031,1 hPa 0,8 l/m 8,0 km/h
SW (2 Bft)
- 2,7 C 9,3 C 24,1 km/h
S-SW (4 Bft)
Durchschnitt _ -6,7 C 88 % 1025,8 hPa #2,5 l/m 1,0 km/h (0 Bft) W-NW -8,4 C -6,7 C 3,1 km/h (1 Bft)